Time;durP1;ratioP1;P1;durP2;ratioP2;P2;SDS_P1;SDS_P2;PMS_P1;PMS_P2;Temp;Humidity;BMP_temperature;BMP_pressure;BME280_temperature;BME280_humidity;BME280_pressure;Samples;Min_cycle;Max_cycle;Signal;HPM_P1;HPM_P2
2021/11/08 00:00:34;;;;;;;37.33;9.27;;;;;;;4.56;100.00;102103.22;5200459;28;20025;-72
2021/11/08 00:03:08;;;;;;;42.22;8.15;;;;;;;4.55;100.00;102092.69;5200188;28;20479;-71
2021/11/08 00:05:43;;;;;;;40.85;8.75;;;;;;;4.50;100.00;102092.97;5201052;28;20033;-72
2021/11/08 00:08:16;;;;;;;34.28;7.95;;;;;;;4.46;100.00;102091.44;5202469;28;20030;-72
2021/11/08 00:10:47;;;;;;;41.67;8.93;;;;;;;4.43;100.00;102094.31;5186926;28;20025;-73
2021/11/08 00:13:18;;;;;;;49.33;8.77;;;;;;;4.42;100.00;102097.94;5199840;28;20052;-73
2021/11/08 00:21:00;;;;;;;32.13;7.50;;;;;;;4.29;100.00;102092.50;5198058;28;20172;-73
2021/11/08 00:23:32;;;;;;;37.38;8.82;;;;;;;4.24;100.00;102094.59;5199580;28;20504;-73
2021/11/08 00:26:02;;;;;;;41.58;9.80;;;;;;;4.20;100.00;102100.19;5183533;28;20049;-72
2021/11/08 00:28:33;;;;;;;46.35;8.73;;;;;;;4.17;100.00;102098.59;5191926;28;21367;-72
2021/11/08 00:31:04;;;;;;;31.45;7.85;;;;;;;4.12;100.00;102104.19;5183715;28;20025;-72
2021/11/08 00:33:34;;;;;;;29.85;7.88;;;;;;;4.06;100.00;102096.56;5182155;28;20254;-73
2021/11/08 00:36:05;;;;;;;31.80;7.63;;;;;;;4.01;100.00;102101.31;5186724;28;20029;-72
2021/11/08 00:38:36;;;;;;;31.85;8.10;;;;;;;3.96;100.00;102087.47;5187813;28;20018;-72
2021/11/08 00:41:06;;;;;;;32.83;8.02;;;;;;;3.89;100.00;102097.59;5178777;28;20096;-72
2021/11/08 00:43:36;;;;;;;27.80;7.35;;;;;;;3.83;100.00;102097.97;5191859;28;20018;-73
2021/11/08 00:46:08;;;;;;;32.22;9.40;;;;;;;3.78;100.00;102100.06;5185132;28;20474;-72
2021/11/08 00:48:39;;;;;;;28.45;6.97;;;;;;;3.76;100.00;102093.97;5178787;28;20033;-72
2021/11/08 00:51:09;;;;;;;33.28;8.27;;;;;;;3.74;100.00;102093.22;5178592;28;20022;-73
2021/11/08 00:53:40;;;;;;;41.20;8.85;;;;;;;3.73;100.00;102098.63;5185245;28;20083;-73
2021/11/08 00:56:17;;;;;;;32.88;9.52;;;;;;;3.72;100.00;102103.09;5185237;28;20406;-73
2021/11/08 00:58:48;;;;;;;27.90;7.57;;;;;;;3.72;100.00;102107.53;5188495;28;20060;-73
2021/11/08 01:01:21;;;;;;;44.47;10.48;;;;;;;3.71;100.00;102104.00;5186570;28;20050;-72
2021/11/08 01:03:52;;;;;;;29.40;8.23;;;;;;;3.68;100.00;102090.94;5184436;28;20341;-73
2021/11/08 01:06:23;;;;;;;36.83;8.52;;;;;;;3.64;100.00;102094.72;5181822;28;20101;-73
2021/11/08 01:08:54;;;;;;;30.23;7.18;;;;;;;3.62;100.00;102099.28;5187717;28;20053;-72
2021/11/08 01:11:25;;;;;;;37.88;7.88;;;;;;;3.61;100.00;102094.88;5188827;28;20079;-72
2021/11/08 01:13:55;;;;;;;28.20;7.20;;;;;;;3.57;100.00;102104.00;5181691;28;20034;-72
2021/11/08 01:16:26;;;;;;;22.15;6.68;;;;;;;3.51;100.00;102107.00;5190401;28;20024;-72
2021/11/08 01:18:57;;;;;;;31.40;7.47;;;;;;;3.45;100.00;102102.91;5184701;28;20239;-72
2021/11/08 01:21:29;;;;;;;34.95;7.60;;;;;;;3.41;100.00;102121.72;5198527;28;20119;-73
2021/11/08 01:24:00;;;;;;;37.25;8.88;;;;;;;3.34;100.00;102110.63;5203258;28;20549;-72
2021/11/08 01:26:32;;;;;;;29.88;7.72;;;;;;;3.29;100.00;102107.41;5202513;28;20037;-72
2021/11/08 01:29:03;;;;;;;35.42;8.60;;;;;;;3.23;100.00;102119.22;5201714;28;20120;-72
2021/11/08 01:31:33;;;;;;;26.95;7.93;;;;;;;3.19;100.00;102117.66;5202264;28;20471;-72
2021/11/08 01:34:04;;;;;;;30.45;7.13;;;;;;;3.18;100.00;102115.13;5194630;28;20021;-72
2021/11/08 01:36:38;;;;;;;36.17;8.20;;;;;;;3.22;100.00;102111.34;5201885;28;20498;-73
2021/11/08 01:39:17;;;;;;;29.13;7.97;;;;;;;3.20;100.00;102099.97;5191858;28;20025;-72
2021/11/08 01:41:48;;;;;;;32.17;7.93;;;;;;;3.13;100.00;102104.78;5202211;28;20038;-72
2021/11/08 01:44:18;;;;;;;25.25;7.68;;;;;;;3.07;100.00;102103.31;5202066;28;20028;-72
2021/11/08 01:46:49;;;;;;;31.40;10.07;;;;;;;3.00;100.00;102099.28;5201945;28;20087;-72
2021/11/08 01:49:19;;;;;;;23.23;6.90;;;;;;;2.94;100.00;102104.09;5201913;28;20098;-72
2021/11/08 01:51:50;;;;;;;26.75;6.95;;;;;;;2.97;100.00;102098.63;5194804;28;20034;-72
2021/11/08 01:54:21;;;;;;;23.70;6.18;;;;;;;2.93;100.00;102097.94;5183478;28;20477;-72
2021/11/08 01:56:54;;;;;;;21.33;6.53;;;;;;;2.89;100.00;102108.81;5201817;28;20067;-72
2021/11/08 01:59:26;;;;;;;26.90;7.53;;;;;;;2.81;100.00;102110.09;5198609;28;20400;-72
2021/11/08 02:01:57;;;;;;;25.08;6.03;;;;;;;2.76;100.00;102114.81;5193052;28;20036;-72
2021/11/08 02:04:29;;;;;;;30.15;7.85;;;;;;;2.74;100.00;102102.56;5202332;28;20017;-72
2021/11/08 02:07:01;;;;;;;23.48;6.60;;;;;;;2.74;100.00;102103.41;5190143;28;20069;-72
2021/11/08 02:09:31;;;;;;;34.17;8.95;;;;;;;2.81;100.00;102119.81;5200724;28;20029;-72
2021/11/08 02:12:02;;;;;;;39.70;7.63;;;;;;;2.86;100.00;102109.81;5188740;28;20145;-72
2021/11/08 02:14:33;;;;;;;23.80;8.55;;;;;;;2.89;100.00;102112.31;5202292;28;20022;-72
2021/11/08 02:17:19;;;;;;;32.28;7.45;;;;;;;2.91;100.00;102102.47;5201196;28;20513;-73
2021/11/08 02:20:14;;;;;;;32.63;8.48;;;;;;;2.94;100.00;102099.66;5201769;28;20059;-72
2021/11/08 02:22:49;;;;;;;33.05;7.30;;;;;;;2.95;100.00;102096.06;5189836;28;20273;-72
2021/11/08 02:25:21;;;;;;;;;;;;;;;2.98;100.00;102105.63;5202045;28;20573;-72
2021/11/08 02:27:52;;;;;;;25.75;6.55;;;;;;;3.13;100.00;102109.22;5201572;28;19923;-72
2021/11/08 02:30:27;;;;;;;32.15;8.02;;;;;;;3.17;100.00;102111.63;5201501;28;20032;-72
2021/11/08 02:33:00;;;;;;;25.23;7.78;;;;;;;3.20;100.00;102114.06;5196135;28;20029;-73
2021/11/08 02:35:30;;;;;;;43.00;9.20;;;;;;;3.21;100.00;102118.44;5200895;28;20021;-73
2021/11/08 02:38:02;;;;;;;22.08;7.20;;;;;;;3.22;100.00;102106.91;5189777;28;20376;-73
2021/11/08 02:40:33;;;;;;;17.80;7.57;;;;;;;3.21;100.00;102115.78;5168610;28;20299;-72
2021/11/08 02:43:04;;;;;;;31.40;7.30;;;;;;;3.22;100.00;102114.00;5183033;28;20481;-71
2021/11/08 02:45:35;;;;;;;19.05;6.47;;;;;;;3.21;100.00;102115.78;5201147;28;20033;-72
2021/11/08 02:48:07;;;;;;;26.67;7.10;;;;;;;3.19;100.00;102120.31;5200840;28;20049;-72
2021/11/08 02:50:38;;;;;;;22.90;6.82;;;;;;;3.16;100.00;102109.03;5201259;28;20067;-72
2021/11/08 02:53:13;;;;;;;28.90;6.93;;;;;;;3.11;100.00;102109.28;5200862;28;20057;-72
2021/11/08 02:55:44;;;;;;;32.13;7.85;;;;;;;3.06;100.00;102111.34;5201212;28;20033;-72
2021/11/08 02:58:15;;;;;;;29.08;7.30;;;;;;;3.04;100.00;102115.91;5200741;28;20475;-72
2021/11/08 03:00:45;;;;;;;25.48;7.68;;;;;;;3.10;100.00;102116.38;5199709;28;20070;-72
2021/11/08 03:03:16;;;;;;;31.08;7.65;;;;;;;3.15;100.00;102124.09;5201247;28;20067;-72
2021/11/08 03:05:47;;;;;;;28.35;7.28;;;;;;;3.12;100.00;102124.28;5187223;28;20120;-72
2021/11/08 03:08:18;;;;;;;27.40;7.20;;;;;;;3.05;100.00;102110.50;5200739;28;20128;-72
2021/11/08 03:10:55;;;;;;;24.90;7.25;;;;;;;3.03;100.00;102115.03;5200942;28;20105;-72
2021/11/08 03:13:27;;;;;;;24.40;6.57;;;;;;;3.01;100.00;102108.09;5201229;28;20108;-73
2021/11/08 03:16:04;;;;;;;30.15;6.60;;;;;;;3.00;100.00;102112.56;5187362;28;20032;-72
2021/11/08 03:18:40;;;;;;;42.78;7.40;;;;;;;3.03;100.00;102115.03;5200938;28;20387;-71
2021/11/08 03:21:18;;;;;;;23.38;7.10;;;;;;;3.08;100.00;102120.94;5176721;28;20208;-72
2021/11/08 03:23:50;;;;;;;25.15;7.30;;;;;;;3.11;100.00;102115.47;5200599;28;20073;-73
2021/11/08 03:28:56;;;;;;;33.47;7.85;;;;;;;3.15;100.00;102102.88;5186431;28;20033;-72
2021/11/08 03:31:29;;;;;;;33.95;8.93;;;;;;;3.16;100.00;102120.47;5200453;28;20026;-72
2021/11/08 03:33:59;;;;;;;30.67;8.10;;;;;;;3.18;100.00;102120.41;5186456;28;20057;-72
2021/11/08 03:36:30;;;;;;;34.97;9.98;;;;;;;3.19;100.00;102112.38;5194571;28;20107;-72
2021/11/08 03:39:00;;;;;;;31.83;8.23;;;;;;;3.21;100.00;102112.28;5188324;28;20029;-72
2021/11/08 03:41:32;;;;;;;39.80;9.10;;;;;;;3.20;100.00;102121.19;5200443;28;20017;-73
2021/11/08 03:44:03;;;;;;;33.30;9.38;;;;;;;3.20;100.00;102116.72;5183069;28;20029;-72
2021/11/08 03:46:33;;;;;;;20.95;7.28;;;;;;;3.19;100.00;102116.81;5200181;28;20022;-72
2021/11/08 03:49:04;;;;;;;36.45;8.02;;;;;;;3.14;100.00;102109.13;5188869;28;20018;-73
2021/11/08 03:51:35;;;;;;;32.42;8.13;;;;;;;3.12;100.00;102113.69;5198372;28;20044;-72
2021/11/08 03:54:06;;;;;;;23.50;7.38;;;;;;;3.08;100.00;102114.78;5182940;28;20017;-73
2021/11/08 03:56:37;;;;;;;19.02;7.20;;;;;;;3.03;100.00;102114.19;5200468;28;20105;-72
2021/11/08 03:59:07;;;;;;;20.42;6.50;;;;;;;2.96;100.00;102120.75;5199949;28;20128;-72
2021/11/08 04:01:38;;;;;;;24.90;7.05;;;;;;;2.89;100.00;102125.56;5200397;28;20021;-72
2021/11/08 04:04:08;;;;;;;26.58;7.75;;;;;;;2.83;100.00;102124.09;5200565;28;20511;-72
2021/11/08 04:06:41;;;;;;;36.28;7.65;;;;;;;2.76;100.00;102130.69;5200007;28;20249;-72
2021/11/08 04:09:12;;;;;;;45.45;6.32;;;;;;;2.69;100.00;102133.75;5199646;28;20029;-72
2021/11/08 04:11:44;;;;;;;129.13;10.95;;;;;;;2.66;100.00;102132.16;5200147;28;20033;-73
2021/11/08 04:14:16;;;;;;;26.50;7.07;;;;;;;2.63;100.00;102134.94;5200281;28;20414;-73
2021/11/08 04:16:47;;;;;;;20.55;6.80;;;;;;;2.60;100.00;102138.59;5200027;28;20022;-73
2021/11/08 04:19:18;;;;;;;24.17;6.82;;;;;;;2.60;100.00;102143.06;5199889;28;20305;-72
2021/11/08 04:21:49;;;;;;;34.63;7.07;;;;;;;2.61;100.00;102144.78;5198699;28;20013;-72
2021/11/08 04:24:19;;;;;;;35.40;6.53;;;;;;;2.57;100.00;102148.53;5201007;28;20501;-72
2021/11/08 04:26:51;;;;;;;29.55;6.90;;;;;;;2.52;100.00;102151.44;5197916;28;20084;-72
2021/11/08 04:29:23;;;;;;;20.00;6.05;;;;;;;2.46;100.00;102150.88;5188306;28;20030;-73
2021/11/08 04:31:54;;;;;;;23.05;6.78;;;;;;;2.42;100.00;102162.59;5200327;28;20021;-72
2021/11/08 04:34:28;;;;;;;108.10;10.60;;;;;;;2.37;100.00;102152.25;5193009;28;20517;-73
2021/11/08 04:42:30;;;;;;;24.67;7.13;;;;;;;2.24;100.00;102159.13;5195959;28;20112;-73
2021/11/08 04:45:18;;;;;;;26.17;7.85;;;;;;;2.19;100.00;102158.50;5200675;28;20087;-73
2021/11/08 04:48:10;;;;;;;36.65;9.18;;;;;;;2.17;100.00;102161.25;5203151;28;20026;-73
2021/11/08 04:50:50;;;;;;;26.02;7.55;;;;;;;2.18;100.00;102162.94;5193092;28;20163;-72
2021/11/08 04:53:29;;;;;;;34.60;7.95;;;;;;;2.20;100.00;102165.50;5196243;28;20041;-71
2021/11/08 04:56:38;;;;;;;25.58;7.15;;;;;;;2.19;100.00;102159.38;5197502;28;20044;-72
2021/11/08 05:21:51;;;;;;;41.90;8.60;;;;;;;2.39;100.00;102176.00;5201792;28;20053;-71
2021/11/08 05:24:31;;;;;;;33.75;8.55;;;;;;;2.43;100.00;102172.25;5178858;28;20694;-71
2021/11/08 05:29:57;;;;;;;34.47;8.55;;;;;;;2.53;100.00;102176.13;5202728;28;20036;-73
2021/11/08 05:32:30;;;;;;;46.53;16.10;;;;;;;2.70;100.00;102175.22;5176708;28;20013;-73
2021/11/08 05:35:01;;;;;;;53.25;17.67;;;;;;;2.83;100.00;102171.81;5197982;28;20432;-72
2021/11/08 05:37:33;;;;;;;38.03;11.20;;;;;;;2.91;100.00;102176.69;5194569;28;20026;-72
2021/11/08 05:40:09;;;;;;;25.92;8.35;;;;;;;2.92;100.00;102178.41;5199409;28;20060;-72
2021/11/08 05:42:40;;;;;;;27.83;7.88;;;;;;;2.89;100.00;102180.38;5203053;28;20413;-72
2021/11/08 05:45:15;;;;;;;28.90;7.25;;;;;;;2.85;100.00;102179.69;5202730;28;20056;-71
2021/11/08 05:47:46;;;;;;;30.20;9.15;;;;;;;2.84;100.00;102180.63;5189553;28;20113;-72
2021/11/08 05:50:21;;;;;;;37.83;8.38;;;;;;;2.86;100.00;102178.72;5202430;28;20104;-71
2021/11/08 05:52:53;;;;;;;31.13;9.52;;;;;;;2.91;100.00;102179.34;5203000;28;20021;-72
2021/11/08 05:58:29;;;;;;;39.40;9.68;;;;;;;3.05;100.00;102197.13;5197582;28;20042;-72
2021/11/08 06:51:26;;;;;;;32.60;8.70;;;;;;;3.70;100.00;102232.38;5205489;28;20356;-73
2021/11/08 06:54:01;;;;;;;31.65;8.45;;;;;;;3.69;100.00;102246.59;5201908;28;20151;-73
2021/11/08 06:56:38;;;;;;;37.78;9.05;;;;;;;3.67;100.00;102242.31;5201804;28;20052;-73
2021/11/08 06:59:10;;;;;;;25.17;8.88;;;;;;;3.63;100.00;102242.50;5187201;28;20041;-73
2021/11/08 07:01:43;;;;;;;40.97;9.05;;;;;;;3.62;100.00;102256.72;5203278;28;20247;-72
2021/11/08 07:04:16;;;;;;;35.35;9.70;;;;;;;3.62;100.00;102255.84;5201307;28;20494;-72
2021/11/08 07:06:47;;;;;;;44.10;9.27;;;;;;;3.58;100.00;102251.66;5197554;23;20076;-77
2021/11/08 07:09:17;;;;;;;39.42;9.98;;;;;;;3.56;100.00;102248.22;5179498;28;20069;-77
2021/11/08 07:11:48;;;;;;;32.15;10.02;;;;;;;3.53;100.00;102246.59;5170154;28;20479;-77
2021/11/08 07:14:19;;;;;;;41.50;10.70;;;;;;;3.52;100.00;102246.69;5177861;28;20037;-77
2021/11/08 07:16:50;;;;;;;52.20;11.10;;;;;;;3.56;100.00;102246.41;5163015;28;20018;-77
2021/11/08 07:19:20;;;;;;;36.00;10.13;;;;;;;3.61;100.00;102251.47;5173390;28;20061;-77
2021/11/08 07:21:51;;;;;;;40.88;11.40;;;;;;;3.68;100.00;102266.13;5172304;28;20026;-77
2021/11/08 07:24:22;;;;;;;61.45;15.60;;;;;;;3.74;100.00;102263.09;5180066;28;20114;-77
2021/11/08 07:26:53;;;;;;;44.03;11.80;;;;;;;3.85;100.00;102258.03;5179812;28;20018;-76
2021/11/08 07:29:25;;;;;;;44.25;14.82;;;;;;;4.02;100.00;102253.56;5179107;28;20026;-77
2021/11/08 07:31:57;;;;;;;44.05;11.85;;;;;;;4.36;100.00;102260.38;5162132;28;20033;-77
2021/11/08 07:34:28;;;;;;;42.05;11.18;;;;;;;4.72;100.00;102261.75;5150900;28;20112;-77
2021/11/08 07:36:59;;;;;;;35.47;10.20;;;;;;;4.93;100.00;102255.97;5177279;28;20105;-76
2021/11/08 07:39:30;;;;;;;30.00;9.43;;;;;;;5.26;100.00;102270.75;5179195;28;20640;-76
2021/11/08 07:42:00;;;;;;;31.48;10.85;;;;;;;5.42;100.00;102271.50;5180579;28;20017;-78
2021/11/08 07:44:31;;;;;;;34.28;10.32;;;;;;;5.74;100.00;102273.03;5179966;28;20335;-77
2021/11/08 07:47:02;;;;;;;40.47;10.02;;;;;;;6.09;100.00;102278.75;5179618;28;20459;-77
2021/11/08 07:49:33;;;;;;;39.58;8.38;;;;;;;6.20;100.00;102273.53;5178078;28;20030;-77
2021/11/08 07:52:05;;;;;;;38.17;7.75;;;;;;;6.25;100.00;102276.75;5180116;28;20375;-77
2021/11/08 07:54:37;;;;;;;30.40;8.27;;;;;;;6.33;100.00;102273.59;5179956;28;20022;-79
2021/11/08 07:57:08;;;;;;;23.85;7.45;;;;;;;6.85;100.00;102276.16;5179338;28;20021;-77
2021/11/08 07:59:39;;;;;;;32.50;7.63;;;;;;;6.96;100.00;102280.75;5180487;28;20021;-78
2021/11/08 08:02:09;;;;;;;27.63;7.28;;;;;;;7.18;100.00;102282.78;5184036;28;20014;-77
2021/11/08 08:04:40;;;;;;;22.92;6.32;;;;;;;7.45;100.00;102285.25;5165401;28;20511;-78
2021/11/08 08:07:11;;;;;;;24.80;5.70;;;;;;;7.87;100.00;102281.25;5179239;28;20025;-77
2021/11/08 08:09:41;;;;;;;26.42;5.75;;;;;;;8.39;100.00;102281.88;5178883;28;20030;-77
2021/11/08 08:12:12;;;;;;;27.15;5.80;;;;;;;8.52;100.00;102282.63;5179550;28;20125;-77
2021/11/08 08:14:43;;;;;;;25.70;5.93;;;;;;;9.15;100.00;102289.28;5182154;28;20033;-78
2021/11/08 08:17:13;;;;;;;24.35;5.95;;;;;;;9.29;100.00;102288.19;5149903;28;20114;-78
2021/11/08 08:19:46;;;;;;;22.52;6.30;;;;;;;9.36;100.00;102281.34;5117928;28;20064;-79
2021/11/08 08:22:16;;;;;;;31.85;6.28;;;;;;;9.15;100.00;102291.13;5174430;28;20036;-77
2021/11/08 08:24:47;;;;;;;22.42;5.35;;;;;;;9.17;100.00;102299.88;5182469;28;20025;-77
2021/11/08 08:27:17;;;;;;;29.30;6.55;;;;;;;9.81;100.00;102290.16;5151347;28;20009;-77
2021/11/08 08:29:51;;;;;;;26.67;5.78;;;;;;;9.82;100.00;102282.97;5166355;28;20032;-77
2021/11/08 08:32:21;;;;;;;29.05;7.07;;;;;;;10.00;100.00;102281.44;5152435;28;20068;-77
2021/11/08 08:34:52;;;;;;;20.55;5.22;;;;;;;10.30;100.00;102293.31;5164825;28;20514;-78
2021/11/08 08:37:23;;;;;;;31.55;5.72;;;;;;;10.73;100.00;102292.31;5182721;28;20438;-77
2021/11/08 08:39:54;;;;;;;29.52;6.65;;;;;;;11.14;100.00;102302.13;5183268;28;20120;-77
2021/11/08 08:42:25;;;;;;;23.30;7.50;;;;;;;11.26;100.00;102306.44;5184416;28;20578;-77
2021/11/08 08:44:56;;;;;;;26.67;6.57;;;;;;;11.36;100.00;102314.56;5184022;28;20082;-77
2021/11/08 08:47:26;;;;;;;31.98;6.57;;;;;;;11.48;100.00;102305.38;5166159;28;20217;-77
2021/11/08 08:49:57;;;;;;;24.25;8.55;;;;;;;11.83;100.00;102304.94;5183981;28;20137;-77
2021/11/08 08:52:27;;;;;;;23.70;6.35;;;;;;;12.02;100.00;102306.81;5183973;28;20709;-77
2021/11/08 08:54:58;;;;;;;22.77;6.10;;;;;;;12.19;100.00;102318.72;5166416;28;20108;-77
2021/11/08 08:57:28;;;;;;;26.83;5.60;;;;;;;12.28;100.00;102325.09;5182378;28;20014;-77
2021/11/08 09:00:00;;;;;;;26.80;5.95;;;;;;;12.35;100.00;102323.50;5183877;28;20113;-77
2021/11/08 09:02:30;;;;;;;31.15;6.57;;;;;;;12.00;100.00;102326.75;5183849;28;20526;-76
2021/11/08 09:05:02;;;;;;;22.80;6.45;;;;;;;11.85;100.00;102327.19;5184079;28;20111;-77
2021/11/08 09:07:34;;;;;;;34.17;7.70;;;;;;;11.82;100.00;102331.97;5173646;28;20030;-77
2021/11/08 09:10:05;;;;;;;31.40;7.47;;;;;;;11.62;100.00;102339.97;5147457;28;20375;-77
2021/11/08 09:12:36;;;;;;;25.90;6.43;;;;;;;11.49;100.00;102336.66;5176409;28;20107;-77
2021/11/08 09:15:07;;;;;;;27.38;9.10;;;;;;;11.73;100.00;102351.59;5162332;28;20093;-77
2021/11/08 09:17:38;;;;;;;43.85;10.00;;;;;;;11.84;100.00;102348.81;5165980;28;20395;-77
2021/11/08 09:20:09;;;;;;;25.05;7.10;;;;;;;11.71;100.00;102353.56;5174866;28;20022;-77
2021/11/08 09:22:42;;;;;;;32.95;8.10;;;;;;;11.62;100.00;102356.09;5180375;28;20087;-78
2021/11/08 09:25:14;;;;;;;25.67;7.00;;;;;;;11.70;100.00;102357.22;5179650;28;20112;-77
2021/11/08 09:27:47;;;;;;;38.15;7.50;;;;;;;11.50;100.00;102349.13;5161499;28;20038;-76
2021/11/08 09:30:21;;;;;;;23.77;6.05;;;;;;;11.55;100.00;102359.47;5164149;28;20029;-78
2021/11/08 09:32:52;;;;;;;27.00;6.63;;;;;;;11.66;100.00;102362.91;5166818;28;20045;-80
2021/11/08 09:35:24;;;;;;;30.73;5.85;;;;;;;11.47;100.00;102360.13;5168640;28;20022;-78
2021/11/08 09:37:54;;;;;;;34.15;7.55;;;;;;;11.07;100.00;102350.19;5180794;28;20033;-77
2021/11/08 09:40:26;;;;;;;24.67;6.03;;;;;;;10.88;100.00;102360.81;5182277;28;20068;-77
2021/11/08 09:42:56;;;;;;;33.35;7.00;;;;;;;10.65;100.00;102367.28;5182389;28;20032;-76
2021/11/08 09:45:27;;;;;;;24.25;6.20;;;;;;;10.36;100.00;102367.91;5175009;28;20033;-77
2021/11/08 09:47:58;;;;;;;30.70;6.47;;;;;;;10.19;100.00;102371.97;5162037;28;20026;-77
2021/11/08 09:50:31;;;;;;;30.65;6.65;;;;;;;10.03;100.00;102368.81;5162379;28;20494;-77
2021/11/08 09:53:05;;;;;;;24.33;5.63;;;;;;;10.03;100.00;102372.34;5159822;28;20022;-77
2021/11/08 09:55:36;;;;;;;82.18;36.63;;;;;;;10.03;100.00;102368.81;5181635;28;20046;-77
2021/11/08 09:58:07;;;;;;;66.68;28.60;;;;;;;10.19;100.00;102366.59;5178688;28;20173;-77
2021/11/08 10:00:38;;;;;;;32.40;8.13;;;;;;;10.25;100.00;102366.13;5163097;28;20030;-77
2021/11/08 10:03:12;;;;;;;43.97;8.02;;;;;;;10.33;100.00;102365.47;5177638;28;20674;-77
2021/11/08 10:05:46;;;;;;;30.92;7.72;;;;;;;10.40;100.00;102374.72;5170528;28;20697;-76
2021/11/08 10:08:21;;;;;;;26.42;7.00;;;;;;;10.46;100.00;102374.19;5173580;28;20525;-77
2021/11/08 10:10:54;;;;;;;31.75;6.30;;;;;;;10.40;100.00;102369.34;5161660;28;20841;-76
2021/11/08 10:13:28;;;;;;;36.88;7.28;;;;;;;10.42;100.00;102370.06;5143468;28;20034;-77
2021/11/08 10:16:03;;;;;;;28.65;7.10;;;;;;;10.48;100.00;102371.38;5161985;28;20073;-76
2021/11/08 10:18:34;;;;;;;38.85;6.80;;;;;;;10.35;100.00;102368.88;5167015;28;20022;-76
2021/11/08 10:21:14;;;;;;;24.33;6.63;;;;;;;10.32;100.00;102364.63;5181239;28;20100;-76
2021/11/08 10:23:50;;;;;;;28.60;7.45;;;;;;;10.27;100.00;102361.47;5181518;28;20117;-76
2021/11/08 10:26:25;;;;;;;36.53;7.00;;;;;;;10.27;100.00;102357.94;5163647;28;20048;-77
2021/11/08 10:29:03;;;;;;;27.05;5.85;;;;;;;10.33;100.00;102352.91;5181251;28;20025;-76
2021/11/08 10:31:38;;;;;;;32.00;6.75;;;;;;;10.49;100.00;102359.66;5181294;28;20039;-76
2021/11/08 10:34:11;;;;;;;33.33;7.20;;;;;;;10.71;100.00;102358.72;5181419;28;20014;-77
2021/11/08 10:36:43;;;;;;;31.33;6.88;;;;;;;10.73;100.00;102349.53;5180665;28;20029;-77
2021/11/08 10:39:13;;;;;;;37.17;7.63;;;;;;;10.69;100.00;102353.47;5179991;28;20037;-77
2021/11/08 10:41:45;;;;;;;26.42;7.03;;;;;;;10.63;100.00;102352.16;5181037;28;20037;-76
2021/11/08 10:44:22;;;;;;;32.25;7.00;;;;;;;10.59;100.00;102356.09;5180647;28;20029;-76
2021/11/08 10:47:01;;;;;;;32.40;7.85;;;;;;;10.49;100.00;102357.84;5181092;28;20545;-76
2021/11/08 10:49:42;;;;;;;30.15;6.78;;;;;;;10.42;100.00;102355.81;5180264;28;20407;-77
2021/11/08 10:52:14;;;;;;;28.92;6.10;;;;;;;10.39;100.00;102359.56;5181112;28;20491;-76
2021/11/08 10:54:54;;;;;;;42.80;14.73;;;;;;;10.50;100.00;102345.28;5166439;28;20032;-77
2021/11/08 10:57:27;;;;;;;31.23;7.60;;;;;;;10.53;100.00;102343.19;5180166;28;20030;-76
2021/11/08 11:00:00;;;;;;;28.85;5.82;;;;;;;10.58;100.00;102343.63;5180519;28;20033;-77
2021/11/08 11:02:31;;;;;;;33.65;7.10;;;;;;;10.62;100.00;102339.72;5180360;28;20033;-77
2021/11/08 11:05:15;;;;;;;50.22;10.00;;;;;;;10.71;100.00;102338.09;5181009;28;20678;-77
2021/11/08 11:07:45;;;;;;;50.10;11.23;;;;;;;10.81;100.00;102341.69;5169769;28;20029;-78
2021/11/08 11:10:20;;;;;;;34.50;7.93;;;;;;;10.97;100.00;102343.91;5180530;28;20574;-77
2021/11/08 11:12:51;;;;;;;33.03;9.40;;;;;;;11.12;100.00;102342.56;5180016;28;20037;-77
2021/11/08 11:15:25;;;;;;;44.88;10.80;;;;;;;11.12;100.00;102336.34;5179479;28;20034;-78
2021/11/08 11:17:59;;;;;;;41.40;11.63;;;;;;;11.20;100.00;102344.59;5162082;28;20030;-77
2021/11/08 11:20:34;;;;;;;33.55;8.73;;;;;;;11.25;100.00;102349.59;5180302;28;20033;-78
2021/11/08 11:23:10;;;;;;;;;;;;;;;11.33;100.00;102339.00;5179768;28;20080;-77
2021/11/08 11:25:43;;;;;;;;;;;;;;;11.47;100.00;102343.16;5172659;28;19909;-78
2021/11/08 11:28:15;;;;;;;29.38;5.97;;;;;;;11.47;100.00;102341.31;5178191;28;19921;-78
2021/11/08 11:30:46;;;;;;;20.08;4.95;;;;;;;11.40;100.00;102334.81;5180118;28;20054;-77
2021/11/08 11:33:21;;;;;;;31.35;5.82;;;;;;;11.51;100.00;102331.16;5180172;28;20626;-77
2021/11/08 11:36:00;;;;;;;31.85;5.50;;;;;;;11.61;100.00;102335.56;5179772;28;20022;-76
2021/11/08 11:38:36;;;;;;;20.65;5.47;;;;;;;11.68;100.00;102343.94;5179147;28;20604;-77
2021/11/08 11:41:12;;;;;;;25.75;5.40;;;;;;;11.86;100.00;102338.78;5180547;28;20090;-76
2021/11/08 11:43:51;;;;;;;22.80;4.78;;;;;;;12.19;100.00;102337.53;5179854;28;20537;-76
2021/11/08 11:46:25;;;;;;;46.42;14.35;;;;;;;12.20;100.00;102341.97;5161854;28;20044;-77
2021/11/08 11:48:57;;;;;;;29.63;5.07;;;;;;;12.24;100.00;102339.81;5179272;28;20032;-76
2021/11/08 11:51:31;;;;;;;34.42;5.28;;;;;;;12.05;100.00;102338.81;5180258;28;20442;-76
2021/11/08 11:54:03;;;;;;;23.83;5.63;;;;;;;12.37;100.00;102335.84;5179589;28;20104;-76
2021/11/08 11:56:38;;;;;;;31.30;5.95;;;;;;;12.46;100.00;102330.63;5179952;28;20025;-76
2021/11/08 11:59:11;;;;;;;29.55;5.80;;;;;;;12.32;100.00;102335.44;5178531;28;20032;-77
2021/11/08 12:01:42;;;;;;;25.52;5.05;;;;;;;12.44;100.00;102325.38;5179568;28;20026;-77
2021/11/08 12:04:14;;;;;;;22.92;4.07;;;;;;;12.36;100.00;102333.31;5179246;28;20021;-77
2021/11/08 12:06:47;;;;;;;20.52;5.03;;;;;;;12.11;100.00;102319.44;5169936;28;20450;-77
2021/11/08 12:09:21;;;;;;;16.77;4.63;;;;;;;12.18;100.00;102323.25;5177700;28;20384;-77
2021/11/08 12:11:53;;;;;;;21.80;5.93;;;;;;;12.23;100.00;102321.97;5179078;28;20483;-77
2021/11/08 12:14:28;;;;;;;24.52;4.43;;;;;;;12.17;100.00;102328.78;5179005;28;20060;-77
2021/11/08 12:17:04;;;;;;;24.60;4.70;;;;;;;12.03;100.00;102323.78;5175295;28;20018;-77
2021/11/08 12:19:38;;;;;;;23.40;4.63;;;;;;;12.01;100.00;102323.94;5170250;28;20037;-77
2021/11/08 12:22:16;;;;;;;30.42;5.38;;;;;;;11.94;100.00;102317.41;5179229;28;20033;-76
2021/11/08 12:24:59;;;;;;;24.35;4.95;;;;;;;11.97;100.00;102313.59;5171962;28;20105;-76
2021/11/08 12:27:39;;;;;;;19.90;5.00;;;;;;;11.93;100.00;102318.41;5161059;28;20022;-77
2021/11/08 12:30:24;;;;;;;20.25;4.78;;;;;;;12.15;100.00;102320.00;5160917;28;20041;-78
2021/11/08 12:32:57;;;;;;;25.00;4.22;;;;;;;12.18;100.00;102323.25;5178600;28;20394;-78
2021/11/08 12:35:34;;;;;;;21.70;4.88;;;;;;;12.29;100.00;102310.63;5178373;28;20029;-78
2021/11/08 12:38:17;;;;;;;24.70;4.28;;;;;;;12.27;100.00;102312.63;5177652;28;20112;-78
2021/11/08 12:41:03;;;;;;;25.95;4.28;;;;;;;12.14;100.00;102327.19;5177975;28;20024;-78
2021/11/08 12:43:34;;;;;;;;;;;;;;;11.88;100.00;102323.34;5178605;28;20029;-79
2021/11/08 12:46:08;;;;;;;23.85;5.70;;;;;;;11.83;100.00;102321.06;5177141;28;19913;-78
2021/11/08 12:48:40;;;;;;;23.38;3.88;;;;;;;11.61;100.00;102322.13;5177944;28;20038;-78
2021/11/08 12:51:13;;;;;;;20.77;4.95;;;;;;;11.54;100.00;102320.97;5178277;28;20069;-77
2021/11/08 12:53:48;;;;;;;17.90;3.97;;;;;;;11.45;100.00;102305.69;5179151;28;20032;-76
2021/11/08 12:56:27;;;;;;;23.63;4.70;;;;;;;11.27;100.00;102310.84;5179200;28;20097;-75
2021/11/08 12:58:59;;;;;;;29.42;4.20;;;;;;;11.18;100.00;102311.63;5178962;28;20406;-75
2021/11/08 13:01:40;;;;;;;25.67;4.38;;;;;;;11.10;100.00;102304.28;5180303;28;20025;-75
2021/11/08 13:04:13;;;;;;;20.20;4.15;;;;;;;11.13;100.00;102295.91;5166093;28;20038;-75
2021/11/08 13:06:46;;;;;;;25.20;4.93;;;;;;;11.20;100.00;102290.88;5173206;28;20108;-75
2021/11/08 13:09:22;;;;;;;22.73;4.18;;;;;;;11.23;100.00;102295.97;5181023;28;20036;-76
2021/11/08 13:11:55;;;;;;;24.85;3.90;;;;;;;11.14;100.00;102294.09;5182533;28;20526;-76